aviador You're here:

CYKL Decoded Metar

SCHEFFERVILLE in QC, CANADA
Report Time2017-10-22 06:25:00
UTC Time2017-10-22 06:32:22
Flight Rules mvfr MVFR
Wind360° at 07 kt
W.Decomp.*RWY 36: 6.5 kt HW 2.6 kt RCW
Visibility9999 m
Phenomena:Light Snow
Clouds:Overcast 019 Hf
Expected CloudBase > 800 ft AGL from Temp-Dew spread
Ceiling1,900 ft
Temp-6°C (ISA -18)
Dew Point-8°C (86% RH)
AAT-11.4°C
QNH1029 hPa
Density Alt-955 ft
Elevation1,709 ft
Report Wrong Elevation
Raw Report
CYKL 220625Z AUTO 36007KT 310V020 9SM -SN OVC019 M06/M08 A3039 RMK
SLP332=

Extra information for CYKL:More info

Metar Taf Metar & Taf Last 4 Metars F.Rules Stats Wind Profile Meteogram Temp Stats Airport Information Weather charts Add Link Nearby VenuesMetar ALERT Operation Metar Decoded Social comments